sensor_id;sensor_type;location;lat;lon;timestamp;P1;durP1;ratioP1;P2;durP2;ratioP2
44925;SDS011;30662;51.210;7.656;2022-09-20T00:03:36;15.15;;;4.45;;
44925;SDS011;30662;51.210;7.656;2022-09-20T00:06:05;16.17;;;4.45;;
44925;SDS011;30662;51.210;7.656;2022-09-20T00:08:31;12.10;;;3.42;;
44925;SDS011;30662;51.210;7.656;2022-09-20T00:11:01;11.80;;;4.25;;
44925;SDS011;30662;51.210;7.656;2022-09-20T00:13:32;9.57;;;4.10;;
44925;SDS011;30662;51.210;7.656;2022-09-20T00:16:02;10.43;;;4.18;;
44925;SDS011;30662;51.210;7.656;2022-09-20T00:18:30;17.70;;;4.57;;
44925;SDS011;30662;51.210;7.656;2022-09-20T00:20:56;15.57;;;5.43;;
44925;SDS011;30662;51.210;7.656;2022-09-20T00:23:21;13.32;;;3.72;;
44925;SDS011;30662;51.210;7.656;2022-09-20T00:25:54;11.05;;;3.92;;
44925;SDS011;30662;51.210;7.656;2022-09-20T00:28:25;13.25;;;4.25;;
44925;SDS011;30662;51.210;7.656;2022-09-20T00:30:52;9.90;;;3.53;;
44925;SDS011;30662;51.210;7.656;2022-09-20T00:33:19;16.20;;;4.35;;
44925;SDS011;30662;51.210;7.656;2022-09-20T00:35:46;17.75;;;4.65;;
44925;SDS011;30662;51.210;7.656;2022-09-20T00:38:12;16.50;;;4.60;;
44925;SDS011;30662;51.210;7.656;2022-09-20T00:40:39;13.45;;;4.25;;
44925;SDS011;30662;51.210;7.656;2022-09-20T00:43:11;18.40;;;5.07;;
44925;SDS011;30662;51.210;7.656;2022-09-20T00:45:40;14.35;;;4.45;;
44925;SDS011;30662;51.210;7.656;2022-09-20T00:48:21;18.05;;;5.47;;
44925;SDS011;30662;51.210;7.656;2022-09-20T00:50:54;17.02;;;4.10;;
44925;SDS011;30662;51.210;7.656;2022-09-20T00:53:38;19.15;;;5.78;;
44925;SDS011;30662;51.210;7.656;2022-09-20T00:56:09;13.02;;;5.22;;
44925;SDS011;30662;51.210;7.656;2022-09-20T00:58:43;18.98;;;5.95;;
44925;SDS011;30662;51.210;7.656;2022-09-20T01:01:28;16.58;;;5.25;;
44925;SDS011;30662;51.210;7.656;2022-09-20T01:03:56;14.80;;;5.78;;
44925;SDS011;30662;51.210;7.656;2022-09-20T01:06:24;18.02;;;5.45;;
44925;SDS011;30662;51.210;7.656;2022-09-20T01:08:50;18.92;;;5.72;;
44925;SDS011;30662;51.210;7.656;2022-09-20T01:11:18;15.32;;;5.35;;
44925;SDS011;30662;51.210;7.656;2022-09-20T01:13:44;15.18;;;5.57;;
44925;SDS011;30662;51.210;7.656;2022-09-20T01:16:10;15.05;;;6.22;;
44925;SDS011;30662;51.210;7.656;2022-09-20T01:18:38;22.77;;;6.40;;
44925;SDS011;30662;51.210;7.656;2022-09-20T01:21:05;15.68;;;5.85;;
44925;SDS011;30662;51.210;7.656;2022-09-20T01:32:15;18.83;;;5.95;;
44925;SDS011;30662;51.210;7.656;2022-09-20T01:34:46;16.45;;;5.03;;
44925;SDS011;30662;51.210;7.656;2022-09-20T01:42:38;16.90;;;5.35;;
44925;SDS011;30662;51.210;7.656;2022-09-20T01:45:22;11.43;;;4.82;;
44925;SDS011;30662;51.210;7.656;2022-09-20T01:48:04;10.30;;;4.70;;
44925;SDS011;30662;51.210;7.656;2022-09-20T01:56:31;16.02;;;5.50;;
44925;SDS011;30662;51.210;7.656;2022-09-20T02:19:06;11.48;;;4.65;;
44925;SDS011;30662;51.210;7.656;2022-09-20T02:22:08;17.83;;;4.72;;
44925;SDS011;30662;51.210;7.656;2022-09-20T02:24:49;15.13;;;4.53;;
44925;SDS011;30662;51.210;7.656;2022-09-20T02:37:50;18.13;;;5.03;;
44925;SDS011;30662;51.210;7.656;2022-09-20T02:43:03;16.75;;;4.50;;
44925;SDS011;30662;51.210;7.656;2022-09-20T02:45:39;9.50;;;4.45;;
44925;SDS011;30662;51.210;7.656;2022-09-20T02:48:35;16.05;;;5.28;;
44925;SDS011;30662;51.210;7.656;2022-09-20T02:53:42;15.80;;;4.70;;
44925;SDS011;30662;51.210;7.656;2022-09-20T02:58:58;11.68;;;4.65;;
44925;SDS011;30662;51.210;7.656;2022-09-20T03:01:51;14.65;;;5.07;;
44925;SDS011;30662;51.210;7.656;2022-09-20T03:26:43;11.98;;;4.03;;
44925;SDS011;30662;51.210;7.656;2022-09-20T03:29:24;8.55;;;3.85;;
44925;SDS011;30662;51.210;7.656;2022-09-20T03:32:03;11.75;;;4.05;;
44925;SDS011;30662;51.210;7.656;2022-09-20T03:37:58;14.65;;;4.03;;
44925;SDS011;30662;51.210;7.656;2022-09-20T03:43:28;15.02;;;4.35;;
44925;SDS011;30662;51.210;7.656;2022-09-20T03:46:34;13.35;;;4.35;;
44925;SDS011;30662;51.210;7.656;2022-09-20T04:08:53;12.75;;;6.32;;
44925;SDS011;30662;51.210;7.656;2022-09-20T04:11:36;13.82;;;6.20;;
44925;SDS011;30662;51.210;7.656;2022-09-20T04:14:42;11.20;;;6.30;;
44925;SDS011;30662;51.210;7.656;2022-09-20T04:19:55;13.00;;;5.60;;
44925;SDS011;30662;51.210;7.656;2022-09-20T04:22:27;11.63;;;5.80;;
44925;SDS011;30662;51.210;7.656;2022-09-20T04:30:30;19.50;;;6.43;;
44925;SDS011;30662;51.210;7.656;2022-09-20T04:36:05;18.67;;;7.20;;
44925;SDS011;30662;51.210;7.656;2022-09-20T04:44:32;16.25;;;7.50;;
44925;SDS011;30662;51.210;7.656;2022-09-20T04:53:20;24.00;;;8.43;;
44925;SDS011;30662;51.210;7.656;2022-09-20T04:56:28;18.67;;;8.75;;
44925;SDS011;30662;51.210;7.656;2022-09-20T05:05:01;22.13;;;9.85;;
44925;SDS011;30662;51.210;7.656;2022-09-20T05:16:00;20.42;;;11.05;;
44925;SDS011;30662;51.210;7.656;2022-09-20T05:21:42;19.85;;;10.68;;
44925;SDS011;30662;51.210;7.656;2022-09-20T05:32:36;29.55;;;15.10;;
44925;SDS011;30662;51.210;7.656;2022-09-20T05:35:11;24.02;;;14.93;;
44925;SDS011;30662;51.210;7.656;2022-09-20T05:43:23;27.85;;;15.85;;
44925;SDS011;30662;51.210;7.656;2022-09-20T06:23:37;30.00;;;15.30;;
44925;SDS011;30662;51.210;7.656;2022-09-20T06:26:06;33.58;;;16.23;;
44925;SDS011;30662;51.210;7.656;2022-09-20T06:28:43;30.20;;;16.50;;
44925;SDS011;30662;51.210;7.656;2022-09-20T06:31:13;28.67;;;16.52;;
44925;SDS011;30662;51.210;7.656;2022-09-20T06:33:42;31.83;;;17.30;;
44925;SDS011;30662;51.210;7.656;2022-09-20T06:36:24;28.50;;;18.02;;
44925;SDS011;30662;51.210;7.656;2022-09-20T06:42:00;34.17;;;19.23;;
44925;SDS011;30662;51.210;7.656;2022-09-20T06:44:26;44.67;;;19.67;;
44925;SDS011;30662;51.210;7.656;2022-09-20T06:46:52;38.35;;;19.48;;
44925;SDS011;30662;51.210;7.656;2022-09-20T06:49:21;35.25;;;20.17;;
44925;SDS011;30662;51.210;7.656;2022-09-20T06:51:48;30.73;;;19.75;;
44925;SDS011;30662;51.210;7.656;2022-09-20T06:54:17;34.95;;;21.50;;
44925;SDS011;30662;51.210;7.656;2022-09-20T06:56:46;43.35;;;23.20;;
44925;SDS011;30662;51.210;7.656;2022-09-20T06:59:14;34.58;;;20.92;;
44925;SDS011;30662;51.210;7.656;2022-09-20T07:01:40;31.80;;;21.23;;
44925;SDS011;30662;51.210;7.656;2022-09-20T07:04:06;35.15;;;22.88;;
44925;SDS011;30662;51.210;7.656;2022-09-20T07:06:34;32.35;;;20.95;;
44925;SDS011;30662;51.210;7.656;2022-09-20T07:09:00;48.17;;;22.27;;
44925;SDS011;30662;51.210;7.656;2022-09-20T07:11:26;38.33;;;23.23;;
44925;SDS011;30662;51.210;7.656;2022-09-20T07:13:53;37.90;;;23.13;;
44925;SDS011;30662;51.210;7.656;2022-09-20T07:16:20;38.95;;;23.00;;
44925;SDS011;30662;51.210;7.656;2022-09-20T07:18:47;45.60;;;22.73;;
44925;SDS011;30662;51.210;7.656;2022-09-20T07:21:14;34.50;;;22.63;;
44925;SDS011;30662;51.210;7.656;2022-09-20T07:23:41;41.72;;;23.83;;
44925;SDS011;30662;51.210;7.656;2022-09-20T07:26:20;37.00;;;24.73;;
44925;SDS011;30662;51.210;7.656;2022-09-20T07:28:48;36.47;;;23.45;;
44925;SDS011;30662;51.210;7.656;2022-09-20T07:31:18;37.13;;;23.88;;
44925;SDS011;30662;51.210;7.656;2022-09-20T07:33:45;37.35;;;22.48;;
44925;SDS011;30662;51.210;7.656;2022-09-20T07:36:11;37.50;;;22.92;;
44925;SDS011;30662;51.210;7.656;2022-09-20T07:38:38;32.92;;;21.23;;
44925;SDS011;30662;51.210;7.656;2022-09-20T07:41:05;32.47;;;20.95;;
44925;SDS011;30662;51.210;7.656;2022-09-20T07:43:31;32.08;;;19.05;;
44925;SDS011;30662;51.210;7.656;2022-09-20T07:45:58;29.10;;;18.95;;
44925;SDS011;30662;51.210;7.656;2022-09-20T07:48:25;28.35;;;17.88;;
44925;SDS011;30662;51.210;7.656;2022-09-20T07:50:58;29.35;;;18.02;;
44925;SDS011;30662;51.210;7.656;2022-09-20T07:53:31;26.02;;;16.58;;
44925;SDS011;30662;51.210;7.656;2022-09-20T07:56:01;31.33;;;17.23;;
44925;SDS011;30662;51.210;7.656;2022-09-20T07:58:29;25.90;;;16.20;;
44925;SDS011;30662;51.210;7.656;2022-09-20T08:00:59;25.95;;;16.58;;
44925;SDS011;30662;51.210;7.656;2022-09-20T08:03:29;30.10;;;18.63;;
44925;SDS011;30662;51.210;7.656;2022-09-20T08:05:58;31.50;;;16.77;;
44925;SDS011;30662;51.210;7.656;2022-09-20T08:08:30;17.80;;;10.10;;
44925;SDS011;30662;51.210;7.656;2022-09-20T08:11:04;20.20;;;9.55;;
44925;SDS011;30662;51.210;7.656;2022-09-20T08:13:36;19.67;;;9.02;;
44925;SDS011;30662;51.210;7.656;2022-09-20T08:16:22;21.65;;;11.07;;
44925;SDS011;30662;51.210;7.656;2022-09-20T08:18:56;16.80;;;8.75;;
44925;SDS011;30662;51.210;7.656;2022-09-20T08:21:23;16.10;;;9.35;;
44925;SDS011;30662;51.210;7.656;2022-09-20T08:28:55;13.25;;;6.15;;
44925;SDS011;30662;51.210;7.656;2022-09-20T08:31:23;12.57;;;6.47;;
44925;SDS011;30662;51.210;7.656;2022-09-20T08:33:51;12.98;;;4.75;;
44925;SDS011;30662;51.210;7.656;2022-09-20T08:36:18;14.68;;;5.00;;
44925;SDS011;30662;51.210;7.656;2022-09-20T08:38:46;11.73;;;4.97;;
44925;SDS011;30662;51.210;7.656;2022-09-20T08:41:33;8.95;;;3.78;;
44925;SDS011;30662;51.210;7.656;2022-09-20T08:44:10;10.13;;;3.60;;
44925;SDS011;30662;51.210;7.656;2022-09-20T08:46:42;8.60;;;3.50;;
44925;SDS011;30662;51.210;7.656;2022-09-20T08:49:18;7.18;;;3.45;;
44925;SDS011;30662;51.210;7.656;2022-09-20T08:51:52;9.27;;;3.42;;
44925;SDS011;30662;51.210;7.656;2022-09-20T08:54:22;7.03;;;3.00;;
44925;SDS011;30662;51.210;7.656;2022-09-20T08:56:49;6.43;;;2.63;;
44925;SDS011;30662;51.210;7.656;2022-09-20T08:59:19;8.07;;;3.03;;
44925;SDS011;30662;51.210;7.656;2022-09-20T09:01:46;10.55;;;3.70;;
44925;SDS011;30662;51.210;7.656;2022-09-20T09:04:15;6.15;;;2.63;;
44925;SDS011;30662;51.210;7.656;2022-09-20T09:06:43;7.68;;;2.60;;
44925;SDS011;30662;51.210;7.656;2022-09-20T09:09:20;11.20;;;2.70;;
44925;SDS011;30662;51.210;7.656;2022-09-20T09:11:50;11.57;;;3.03;;
44925;SDS011;30662;51.210;7.656;2022-09-20T09:14:27;8.80;;;2.72;;
44925;SDS011;30662;51.210;7.656;2022-09-20T09:17:14;7.30;;;2.33;;
44925;SDS011;30662;51.210;7.656;2022-09-20T09:22:13;9.18;;;2.40;;
44925;SDS011;30662;51.210;7.656;2022-09-20T09:24:43;9.02;;;2.47;;
44925;SDS011;30662;51.210;7.656;2022-09-20T09:27:15;14.77;;;2.60;;
44925;SDS011;30662;51.210;7.656;2022-09-20T09:29:50;8.25;;;2.47;;
44925;SDS011;30662;51.210;7.656;2022-09-20T09:32:28;7.97;;;1.58;;
44925;SDS011;30662;51.210;7.656;2022-09-20T09:34:56;8.65;;;2.42;;
44925;SDS011;30662;51.210;7.656;2022-09-20T09:37:51;11.60;;;2.45;;
44925;SDS011;30662;51.210;7.656;2022-09-20T09:40:19;8.77;;;1.77;;
44925;SDS011;30662;51.210;7.656;2022-09-20T09:42:56;10.32;;;1.80;;
44925;SDS011;30662;51.210;7.656;2022-09-20T09:47:55;2.70;;;1.17;;
44925;SDS011;30662;51.210;7.656;2022-09-20T09:50:27;4.47;;;0.90;;
44925;SDS011;30662;51.210;7.656;2022-09-20T09:52:56;3.50;;;1.10;;
44925;SDS011;30662;51.210;7.656;2022-09-20T09:59:12;4.53;;;1.17;;
44925;SDS011;30662;51.210;7.656;2022-09-20T10:26:52;7.70;;;1.25;;
44925;SDS011;30662;51.210;7.656;2022-09-20T10:55:24;4.63;;;1.45;;
44925;SDS011;30662;51.210;7.656;2022-09-20T11:06:00;4.30;;;1.90;;
44925;SDS011;30662;51.210;7.656;2022-09-20T11:08:46;5.45;;;1.13;;
44925;SDS011;30662;51.210;7.656;2022-09-20T11:11:20;4.65;;;0.75;;
44925;SDS011;30662;51.210;7.656;2022-09-20T11:16:20;2.13;;;0.70;;
44925;SDS011;30662;51.210;7.656;2022-09-20T11:18:54;3.60;;;0.93;;
44925;SDS011;30662;51.210;7.656;2022-09-20T11:26:38;2.65;;;0.90;;
44925;SDS011;30662;51.210;7.656;2022-09-20T11:29:31;2.72;;;0.70;;
44925;SDS011;30662;51.210;7.656;2022-09-20T11:32:14;3.70;;;0.73;;
44925;SDS011;30662;51.210;7.656;2022-09-20T11:34:53;3.03;;;0.80;;
44925;SDS011;30662;51.210;7.656;2022-09-20T11:37:22;3.03;;;0.93;;
44925;SDS011;30662;51.210;7.656;2022-09-20T11:39:59;4.43;;;1.20;;
44925;SDS011;30662;51.210;7.656;2022-09-20T11:42:29;3.22;;;1.13;;
44925;SDS011;30662;51.210;7.656;2022-09-20T11:45:01;2.53;;;0.57;;
44925;SDS011;30662;51.210;7.656;2022-09-20T11:56:02;2.10;;;0.80;;
44925;SDS011;30662;51.210;7.656;2022-09-20T11:58:49;3.58;;;1.20;;
44925;SDS011;30662;51.210;7.656;2022-09-20T12:01:36;3.22;;;1.05;;
44925;SDS011;30662;51.210;7.656;2022-09-20T12:04:10;2.90;;;0.95;;
44925;SDS011;30662;51.210;7.656;2022-09-20T12:07:03;8.00;;;1.30;;
44925;SDS011;30662;51.210;7.656;2022-09-20T12:09:38;7.97;;;1.30;;
44925;SDS011;30662;51.210;7.656;2022-09-20T12:14:39;4.13;;;1.27;;
44925;SDS011;30662;51.210;7.656;2022-09-20T12:28:48;6.28;;;2.67;;
44925;SDS011;30662;51.210;7.656;2022-09-20T12:36:21;6.00;;;0.90;;
44925;SDS011;30662;51.210;7.656;2022-09-20T12:38:50;3.42;;;0.90;;
44925;SDS011;30662;51.210;7.656;2022-09-20T12:41:22;4.85;;;1.08;;
44925;SDS011;30662;51.210;7.656;2022-09-20T12:43:58;3.53;;;1.00;;
44925;SDS011;30662;51.210;7.656;2022-09-20T12:49:21;1.53;;;0.80;;
44925;SDS011;30662;51.210;7.656;2022-09-20T12:52:31;5.00;;;0.93;;
44925;SDS011;30662;51.210;7.656;2022-09-20T12:58:02;3.85;;;1.02;;
44925;SDS011;30662;51.210;7.656;2022-09-20T13:03:29;4.05;;;1.00;;
44925;SDS011;30662;51.210;7.656;2022-09-20T13:08:33;3.65;;;0.85;;
44925;SDS011;30662;51.210;7.656;2022-09-20T13:11:17;3.70;;;0.95;;
44925;SDS011;30662;51.210;7.656;2022-09-20T13:13:46;2.55;;;0.47;;
44925;SDS011;30662;51.210;7.656;2022-09-20T13:16:17;3.45;;;0.80;;
44925;SDS011;30662;51.210;7.656;2022-09-20T13:18:48;3.83;;;1.00;;
44925;SDS011;30662;51.210;7.656;2022-09-20T13:21:30;3.00;;;0.63;;
44925;SDS011;30662;51.210;7.656;2022-09-20T13:23:58;4.28;;;0.80;;
44925;SDS011;30662;51.210;7.656;2022-09-20T13:26:28;4.03;;;0.85;;
44925;SDS011;30662;51.210;7.656;2022-09-20T13:28:58;3.60;;;0.90;;
44925;SDS011;30662;51.210;7.656;2022-09-20T13:31:26;5.22;;;1.17;;
44925;SDS011;30662;51.210;7.656;2022-09-20T13:34:13;4.63;;;0.98;;
44925;SDS011;30662;51.210;7.656;2022-09-20T13:36:43;3.38;;;0.88;;
44925;SDS011;30662;51.210;7.656;2022-09-20T13:39:23;3.97;;;1.05;;
44925;SDS011;30662;51.210;7.656;2022-09-20T13:41:57;3.13;;;0.93;;
44925;SDS011;30662;51.210;7.656;2022-09-20T13:44:26;2.63;;;0.90;;
44925;SDS011;30662;51.210;7.656;2022-09-20T13:46:57;2.15;;;0.80;;
44925;SDS011;30662;51.210;7.656;2022-09-20T13:49:23;2.95;;;0.90;;
44925;SDS011;30662;51.210;7.656;2022-09-20T13:51:50;3.45;;;0.70;;
44925;SDS011;30662;51.210;7.656;2022-09-20T13:57:03;4.22;;;1.13;;
44925;SDS011;30662;51.210;7.656;2022-09-20T13:59:44;4.65;;;1.38;;
44925;SDS011;30662;51.210;7.656;2022-09-20T14:02:27;3.05;;;0.80;;
44925;SDS011;30662;51.210;7.656;2022-09-20T14:04:56;2.20;;;0.82;;
44925;SDS011;30662;51.210;7.656;2022-09-20T14:07:25;7.13;;;1.63;;
44925;SDS011;30662;51.210;7.656;2022-09-20T14:09:53;4.45;;;1.25;;
44925;SDS011;30662;51.210;7.656;2022-09-20T14:12:20;3.67;;;1.08;;
44925;SDS011;30662;51.210;7.656;2022-09-20T14:14:48;6.30;;;1.17;;
44925;SDS011;30662;51.210;7.656;2022-09-20T14:17:16;4.28;;;1.73;;
44925;SDS011;30662;51.210;7.656;2022-09-20T14:19:45;4.55;;;1.40;;
44925;SDS011;30662;51.210;7.656;2022-09-20T14:22:31;3.35;;;1.60;;
44925;SDS011;30662;51.210;7.656;2022-09-20T14:24:59;3.30;;;1.05;;
44925;SDS011;30662;51.210;7.656;2022-09-20T14:27:27;9.40;;;1.40;;
44925;SDS011;30662;51.210;7.656;2022-09-20T14:29:55;4.97;;;1.63;;
44925;SDS011;30662;51.210;7.656;2022-09-20T14:32:38;5.43;;;0.90;;
44925;SDS011;30662;51.210;7.656;2022-09-20T14:35:16;4.82;;;1.15;;
44925;SDS011;30662;51.210;7.656;2022-09-20T14:40:25;5.25;;;1.23;;
44925;SDS011;30662;51.210;7.656;2022-09-20T14:42:55;3.25;;;1.17;;
44925;SDS011;30662;51.210;7.656;2022-09-20T14:45:31;5.07;;;1.40;;
44925;SDS011;30662;51.210;7.656;2022-09-20T14:48:05;8.63;;;1.88;;
44925;SDS011;30662;51.210;7.656;2022-09-20T14:56:40;4.65;;;1.30;;
44925;SDS011;30662;51.210;7.656;2022-09-20T14:59:18;6.40;;;1.20;;
44925;SDS011;30662;51.210;7.656;2022-09-20T15:04:28;6.60;;;1.65;;
44925;SDS011;30662;51.210;7.656;2022-09-20T15:07:00;4.60;;;1.80;;
44925;SDS011;30662;51.210;7.656;2022-09-20T15:09:28;4.50;;;1.42;;
44925;SDS011;30662;51.210;7.656;2022-09-20T15:12:01;6.47;;;1.85;;
44925;SDS011;30662;51.210;7.656;2022-09-20T15:14:31;3.90;;;1.48;;
44925;SDS011;30662;51.210;7.656;2022-09-20T15:17:03;6.90;;;1.55;;
44925;SDS011;30662;51.210;7.656;2022-09-20T15:19:29;4.05;;;1.45;;
44925;SDS011;30662;51.210;7.656;2022-09-20T15:21:55;4.05;;;1.38;;
44925;SDS011;30662;51.210;7.656;2022-09-20T15:24:21;4.60;;;1.30;;
44925;SDS011;30662;51.210;7.656;2022-09-20T15:26:47;5.47;;;1.55;;
44925;SDS011;30662;51.210;7.656;2022-09-20T15:29:14;4.25;;;1.40;;
44925;SDS011;30662;51.210;7.656;2022-09-20T15:31:42;2.83;;;1.23;;
44925;SDS011;30662;51.210;7.656;2022-09-20T15:34:09;7.72;;;1.70;;
44925;SDS011;30662;51.210;7.656;2022-09-20T15:36:37;6.55;;;1.70;;
44925;SDS011;30662;51.210;7.656;2022-09-20T15:39:04;6.00;;;1.45;;
44925;SDS011;30662;51.210;7.656;2022-09-20T15:41:30;4.60;;;1.55;;
44925;SDS011;30662;51.210;7.656;2022-09-20T15:43:57;3.55;;;1.50;;
44925;SDS011;30662;51.210;7.656;2022-09-20T15:46:24;10.88;;;1.77;;
44925;SDS011;30662;51.210;7.656;2022-09-20T15:48:53;4.88;;;1.58;;
44925;SDS011;30662;51.210;7.656;2022-09-20T15:51:20;1.77;;;1.30;;
44925;SDS011;30662;51.210;7.656;2022-09-20T15:53:53;5.30;;;1.33;;
44925;SDS011;30662;51.210;7.656;2022-09-20T15:58:52;5.75;;;2.30;;
44925;SDS011;30662;51.210;7.656;2022-09-20T16:01:32;6.03;;;1.60;;
44925;SDS011;30662;51.210;7.656;2022-09-20T16:06:35;3.83;;;1.27;;
44925;SDS011;30662;51.210;7.656;2022-09-20T16:09:02;5.82;;;1.90;;
44925;SDS011;30662;51.210;7.656;2022-09-20T16:11:28;5.43;;;1.38;;
44925;SDS011;30662;51.210;7.656;2022-09-20T16:13:56;4.13;;;1.50;;
44925;SDS011;30662;51.210;7.656;2022-09-20T16:16:24;4.22;;;1.42;;
44925;SDS011;30662;51.210;7.656;2022-09-20T16:18:51;8.55;;;2.17;;
44925;SDS011;30662;51.210;7.656;2022-09-20T16:21:37;5.53;;;1.42;;
44925;SDS011;30662;51.210;7.656;2022-09-20T16:24:05;5.63;;;1.50;;
44925;SDS011;30662;51.210;7.656;2022-09-20T16:26:32;6.82;;;1.48;;
44925;SDS011;30662;51.210;7.656;2022-09-20T16:28:59;9.38;;;1.60;;
44925;SDS011;30662;51.210;7.656;2022-09-20T16:33:55;3.25;;;1.20;;
44925;SDS011;30662;51.210;7.656;2022-09-20T16:36:21;5.00;;;1.70;;
44925;SDS011;30662;51.210;7.656;2022-09-20T16:38:52;7.93;;;2.33;;
44925;SDS011;30662;51.210;7.656;2022-09-20T16:41:20;4.35;;;1.20;;
44925;SDS011;30662;51.210;7.656;2022-09-20T16:43:47;3.85;;;1.38;;
44925;SDS011;30662;51.210;7.656;2022-09-20T16:46:23;5.65;;;1.73;;
44925;SDS011;30662;51.210;7.656;2022-09-20T16:48:54;4.20;;;1.60;;
44925;SDS011;30662;51.210;7.656;2022-09-20T16:51:24;4.18;;;1.50;;
44925;SDS011;30662;51.210;7.656;2022-09-20T16:53:54;5.78;;;2.17;;
44925;SDS011;30662;51.210;7.656;2022-09-20T16:56:21;11.75;;;2.47;;
44925;SDS011;30662;51.210;7.656;2022-09-20T16:58:51;4.43;;;1.50;;
44925;SDS011;30662;51.210;7.656;2022-09-20T17:01:18;4.50;;;1.60;;
44925;SDS011;30662;51.210;7.656;2022-09-20T17:03:44;3.97;;;2.03;;
44925;SDS011;30662;51.210;7.656;2022-09-20T17:06:11;11.07;;;2.53;;
44925;SDS011;30662;51.210;7.656;2022-09-20T17:08:39;6.93;;;1.73;;
44925;SDS011;30662;51.210;7.656;2022-09-20T17:11:06;5.20;;;2.28;;
44925;SDS011;30662;51.210;7.656;2022-09-20T17:13:38;7.70;;;2.30;;
44925;SDS011;30662;51.210;7.656;2022-09-20T17:16:07;7.45;;;2.45;;
44925;SDS011;30662;51.210;7.656;2022-09-20T17:18:37;7.32;;;2.88;;
44925;SDS011;30662;51.210;7.656;2022-09-20T17:21:07;6.43;;;2.55;;
44925;SDS011;30662;51.210;7.656;2022-09-20T17:23:34;6.20;;;1.73;;
44925;SDS011;30662;51.210;7.656;2022-09-20T17:26:11;5.07;;;2.33;;
44925;SDS011;30662;51.210;7.656;2022-09-20T17:28:43;5.38;;;1.83;;
44925;SDS011;30662;51.210;7.656;2022-09-20T17:31:14;7.05;;;1.52;;
44925;SDS011;30662;51.210;7.656;2022-09-20T17:33:42;4.68;;;1.77;;
44925;SDS011;30662;51.210;7.656;2022-09-20T17:36:11;5.45;;;1.73;;
44925;SDS011;30662;51.210;7.656;2022-09-20T17:38:44;5.30;;;1.58;;
44925;SDS011;30662;51.210;7.656;2022-09-20T17:41:12;5.32;;;1.55;;
44925;SDS011;30662;51.210;7.656;2022-09-20T17:43:40;8.40;;;2.22;;
44925;SDS011;30662;51.210;7.656;2022-09-20T17:46:18;2.83;;;1.30;;
44925;SDS011;30662;51.210;7.656;2022-09-20T17:48:46;5.40;;;1.98;;
44925;SDS011;30662;51.210;7.656;2022-09-20T17:51:15;3.28;;;1.55;;
44925;SDS011;30662;51.210;7.656;2022-09-20T17:53:43;5.00;;;2.28;;
44925;SDS011;30662;51.210;7.656;2022-09-20T17:56:10;8.60;;;2.55;;
44925;SDS011;30662;51.210;7.656;2022-09-20T17:58:37;9.35;;;2.67;;
44925;SDS011;30662;51.210;7.656;2022-09-20T18:01:05;3.60;;;1.90;;
44925;SDS011;30662;51.210;7.656;2022-09-20T18:03:39;8.85;;;2.75;;
44925;SDS011;30662;51.210;7.656;2022-09-20T18:08:36;9.05;;;2.25;;
44925;SDS011;30662;51.210;7.656;2022-09-20T18:11:02;6.82;;;2.47;;
44925;SDS011;30662;51.210;7.656;2022-09-20T18:13:29;5.57;;;2.40;;
44925;SDS011;30662;51.210;7.656;2022-09-20T18:15:55;7.50;;;2.63;;
44925;SDS011;30662;51.210;7.656;2022-09-20T18:18:21;6.38;;;2.70;;
44925;SDS011;30662;51.210;7.656;2022-09-20T18:20:47;5.88;;;1.95;;
44925;SDS011;30662;51.210;7.656;2022-09-20T18:23:13;7.38;;;2.83;;
44925;SDS011;30662;51.210;7.656;2022-09-20T18:25:39;6.47;;;2.78;;
44925;SDS011;30662;51.210;7.656;2022-09-20T18:28:23;9.20;;;4.03;;
44925;SDS011;30662;51.210;7.656;2022-09-20T18:31:01;9.88;;;4.50;;
44925;SDS011;30662;51.210;7.656;2022-09-20T18:33:28;11.95;;;3.58;;
44925;SDS011;30662;51.210;7.656;2022-09-20T18:36:02;5.13;;;2.70;;
44925;SDS011;30662;51.210;7.656;2022-09-20T18:38:30;9.50;;;2.67;;
44925;SDS011;30662;51.210;7.656;2022-09-20T18:40:58;8.70;;;3.45;;
44925;SDS011;30662;51.210;7.656;2022-09-20T18:43:28;3.38;;;1.92;;
44925;SDS011;30662;51.210;7.656;2022-09-20T18:45:55;9.57;;;2.55;;
44925;SDS011;30662;51.210;7.656;2022-09-20T18:48:22;4.53;;;2.38;;
44925;SDS011;30662;51.210;7.656;2022-09-20T18:50:56;6.38;;;2.08;;
44925;SDS011;30662;51.210;7.656;2022-09-20T18:53:27;4.60;;;2.05;;
44925;SDS011;30662;51.210;7.656;2022-09-20T18:56:04;4.35;;;1.80;;
44925;SDS011;30662;51.210;7.656;2022-09-20T18:58:38;4.20;;;1.83;;
44925;SDS011;30662;51.210;7.656;2022-09-20T19:06:37;6.05;;;2.20;;
44925;SDS011;30662;51.210;7.656;2022-09-20T19:09:14;6.50;;;2.13;;
44925;SDS011;30662;51.210;7.656;2022-09-20T19:11:57;4.50;;;2.22;;
44925;SDS011;30662;51.210;7.656;2022-09-20T19:14:35;2.80;;;2.00;;
44925;SDS011;30662;51.210;7.656;2022-09-20T19:17:17;7.00;;;1.98;;
44925;SDS011;30662;51.210;7.656;2022-09-20T19:19:54;6.03;;;2.47;;
44925;SDS011;30662;51.210;7.656;2022-09-20T19:22:31;5.75;;;2.30;;
44925;SDS011;30662;51.210;7.656;2022-09-20T19:25:19;6.13;;;2.67;;
44925;SDS011;30662;51.210;7.656;2022-09-20T19:27:53;3.63;;;2.50;;
44925;SDS011;30662;51.210;7.656;2022-09-20T19:30:19;6.47;;;2.85;;
44925;SDS011;30662;51.210;7.656;2022-09-20T19:32:45;6.35;;;2.25;;
44925;SDS011;30662;51.210;7.656;2022-09-20T19:35:14;6.47;;;2.08;;
44925;SDS011;30662;51.210;7.656;2022-09-20T19:37:55;6.03;;;2.03;;
44925;SDS011;30662;51.210;7.656;2022-09-20T19:43:44;6.43;;;2.08;;
44925;SDS011;30662;51.210;7.656;2022-09-20T19:52:02;4.95;;;1.88;;
44925;SDS011;30662;51.210;7.656;2022-09-20T19:54:29;6.07;;;2.10;;
44925;SDS011;30662;51.210;7.656;2022-09-20T19:56:56;5.97;;;1.95;;
44925;SDS011;30662;51.210;7.656;2022-09-20T19:59:24;5.57;;;2.60;;
44925;SDS011;30662;51.210;7.656;2022-09-20T20:01:52;7.05;;;2.75;;
44925;SDS011;30662;51.210;7.656;2022-09-20T20:04:19;5.57;;;2.47;;
44925;SDS011;30662;51.210;7.656;2022-09-20T20:12:41;6.50;;;2.22;;
44925;SDS011;30662;51.210;7.656;2022-09-20T20:20:46;3.20;;;2.00;;
44925;SDS011;30662;51.210;7.656;2022-09-20T20:28:33;5.18;;;2.15;;
44925;SDS011;30662;51.210;7.656;2022-09-20T20:30:59;6.97;;;2.50;;
44925;SDS011;30662;51.210;7.656;2022-09-20T20:33:28;5.43;;;2.42;;
44925;SDS011;30662;51.210;7.656;2022-09-20T20:35:56;5.25;;;2.75;;
44925;SDS011;30662;51.210;7.656;2022-09-20T20:38:23;7.25;;;2.70;;
44925;SDS011;30662;51.210;7.656;2022-09-20T20:40:56;5.38;;;2.95;;
44925;SDS011;30662;51.210;7.656;2022-09-20T20:43:23;9.43;;;2.95;;
44925;SDS011;30662;51.210;7.656;2022-09-20T20:45:49;7.32;;;3.15;;
44925;SDS011;30662;51.210;7.656;2022-09-20T20:48:15;11.10;;;3.20;;
44925;SDS011;30662;51.210;7.656;2022-09-20T20:50:41;8.63;;;3.70;;
44925;SDS011;30662;51.210;7.656;2022-09-20T20:53:07;8.82;;;3.97;;
44925;SDS011;30662;51.210;7.656;2022-09-20T20:55:33;10.30;;;4.30;;
44925;SDS011;30662;51.210;7.656;2022-09-20T20:57:59;6.93;;;3.50;;
44925;SDS011;30662;51.210;7.656;2022-09-20T21:00:25;5.70;;;3.60;;
44925;SDS011;30662;51.210;7.656;2022-09-20T21:02:55;7.45;;;3.53;;
44925;SDS011;30662;51.210;7.656;2022-09-20T21:05:23;10.55;;;3.50;;
44925;SDS011;30662;51.210;7.656;2022-09-20T21:07:50;9.38;;;4.45;;
44925;SDS011;30662;51.210;7.656;2022-09-20T21:10:16;8.52;;;4.22;;
44925;SDS011;30662;51.210;7.656;2022-09-20T21:12:42;8.35;;;4.82;;
44925;SDS011;30662;51.210;7.656;2022-09-20T21:15:08;10.25;;;4.88;;
44925;SDS011;30662;51.210;7.656;2022-09-20T21:17:34;6.07;;;4.03;;
44925;SDS011;30662;51.210;7.656;2022-09-20T21:20:01;10.07;;;4.05;;
44925;SDS011;30662;51.210;7.656;2022-09-20T21:22:31;10.90;;;4.38;;
44925;SDS011;30662;51.210;7.656;2022-09-20T21:24:58;12.40;;;3.88;;
44925;SDS011;30662;51.210;7.656;2022-09-20T21:27:24;7.80;;;3.85;;